sensor_id;sensor_type;location;lat;lon;timestamp;pressure;altitude;pressure_sealevel;temperature;humidity
36502;BME280;25393;46.108;3.390;2022-12-24T00:01:16;97998.25;;;13.38;100.00
36502;BME280;25393;46.108;3.390;2022-12-24T00:03:43;97985.13;;;13.37;100.00
36502;BME280;25393;46.108;3.390;2022-12-24T00:06:19;98005.75;;;13.49;100.00
36502;BME280;25393;46.108;3.390;2022-12-24T00:08:46;98017.25;;;13.35;100.00
36502;BME280;25393;46.108;3.390;2022-12-24T00:11:13;98000.38;;;13.28;100.00
36502;BME280;25393;46.108;3.390;2022-12-24T00:13:40;98006.75;;;13.48;100.00
36502;BME280;25393;46.108;3.390;2022-12-24T00:16:06;97991.91;;;13.39;100.00
36502;BME280;25393;46.108;3.390;2022-12-24T00:18:33;97989.63;;;13.36;100.00
36502;BME280;25393;46.108;3.390;2022-12-24T00:21:06;97971.38;;;13.33;100.00
36502;BME280;25393;46.108;3.390;2022-12-24T00:23:33;97963.34;;;13.12;100.00
36502;BME280;25393;46.108;3.390;2022-12-24T00:26:00;97986.16;;;13.21;100.00
36502;BME280;25393;46.108;3.390;2022-12-24T00:28:29;97987.38;;;13.19;100.00
36502;BME280;25393;46.108;3.390;2022-12-24T00:31:05;97993.97;;;13.23;100.00
36502;BME280;25393;46.108;3.390;2022-12-24T00:33:32;97970.00;;;13.08;100.00
36502;BME280;25393;46.108;3.390;2022-12-24T00:35:58;97998.34;;;13.30;100.00
36502;BME280;25393;46.108;3.390;2022-12-24T00:38:25;97989.09;;;13.26;100.00
36502;BME280;25393;46.108;3.390;2022-12-24T00:41:00;98003.09;;;13.35;100.00
36502;BME280;25393;46.108;3.390;2022-12-24T00:43:31;98017.72;;;13.24;100.00
36502;BME280;25393;46.108;3.390;2022-12-24T00:45:59;98019.09;;;13.20;100.00
36502;BME280;25393;46.108;3.390;2022-12-24T00:48:26;97994.44;;;12.97;100.00
36502;BME280;25393;46.108;3.390;2022-12-24T00:50:54;98024.78;;;13.02;100.00
36502;BME280;25393;46.108;3.390;2022-12-24T00:53:21;98020.03;;;12.98;100.00
36502;BME280;25393;46.108;3.390;2022-12-24T00:55:48;98023.22;;;12.93;100.00
36502;BME280;25393;46.108;3.390;2022-12-24T00:58:14;98027.63;;;13.01;100.00
36502;BME280;25393;46.108;3.390;2022-12-24T01:00:41;98007.06;;;12.95;100.00
36502;BME280;25393;46.108;3.390;2022-12-24T01:03:07;98002.69;;;13.17;100.00
36502;BME280;25393;46.108;3.390;2022-12-24T01:05:34;98003.97;;;13.21;100.00
36502;BME280;25393;46.108;3.390;2022-12-24T01:08:01;98010.41;;;13.26;100.00
36502;BME280;25393;46.108;3.390;2022-12-24T01:10:27;98027.63;;;13.30;100.00
36502;BME280;25393;46.108;3.390;2022-12-24T01:12:56;98036.44;;;13.31;100.00
36502;BME280;25393;46.108;3.390;2022-12-24T01:15:22;98038.09;;;13.17;100.00
36502;BME280;25393;46.108;3.390;2022-12-24T01:17:49;98020.56;;;13.08;100.00
36502;BME280;25393;46.108;3.390;2022-12-24T01:20:16;98031.50;;;13.13;100.00
36502;BME280;25393;46.108;3.390;2022-12-24T01:22:43;98003.16;;;12.91;100.00
36502;BME280;25393;46.108;3.390;2022-12-24T01:25:10;98035.38;;;13.11;100.00
36502;BME280;25393;46.108;3.390;2022-12-24T01:27:37;98031.47;;;12.98;100.00
36502;BME280;25393;46.108;3.390;2022-12-24T01:30:05;98040.09;;;13.00;100.00
36502;BME280;25393;46.108;3.390;2022-12-24T01:32:32;98016.25;;;12.78;100.00
36502;BME280;25393;46.108;3.390;2022-12-24T01:34:59;98045.59;;;12.99;100.00
36502;BME280;25393;46.108;3.390;2022-12-24T01:37:25;98037.16;;;12.95;100.00
36502;BME280;25393;46.108;3.390;2022-12-24T01:39:52;98017.53;;;12.82;100.00
36502;BME280;25393;46.108;3.390;2022-12-24T01:42:46;98046.06;;;13.02;100.00
36502;BME280;25393;46.108;3.390;2022-12-24T01:45:46;98030.56;;;12.91;100.00
36502;BME280;25393;46.108;3.390;2022-12-24T01:48:33;98037.28;;;12.87;100.00
36502;BME280;25393;46.108;3.390;2022-12-24T01:51:23;98044.66;;;12.77;100.00
36502;BME280;25393;46.108;3.390;2022-12-24T01:54:03;98035.78;;;12.70;100.00
36502;BME280;25393;46.108;3.390;2022-12-24T01:56:36;98029.75;;;12.76;100.00
36502;BME280;25393;46.108;3.390;2022-12-24T01:59:08;98038.56;;;12.77;100.00
36502;BME280;25393;46.108;3.390;2022-12-24T02:01:36;98011.47;;;12.59;100.00
36502;BME280;25393;46.108;3.390;2022-12-24T02:04:11;98031.47;;;12.69;100.00
36502;BME280;25393;46.108;3.390;2022-12-24T02:06:38;98025.16;;;12.56;100.00
36502;BME280;25393;46.108;3.390;2022-12-24T02:09:05;98032.19;;;12.48;100.00
36502;BME280;25393;46.108;3.390;2022-12-24T02:11:38;98023.03;;;12.51;100.00
36502;BME280;25393;46.108;3.390;2022-12-24T02:14:06;98045.31;;;12.65;100.00
36502;BME280;25393;46.108;3.390;2022-12-24T02:22:13;98040.25;;;12.55;100.00
36502;BME280;25393;46.108;3.390;2022-12-24T02:27:59;98042.63;;;12.50;100.00
36502;BME280;25393;46.108;3.390;2022-12-24T02:30:41;98036.69;;;12.48;100.00
36502;BME280;25393;46.108;3.390;2022-12-24T02:33:37;98037.13;;;12.51;100.00
36502;BME280;25393;46.108;3.390;2022-12-24T02:38:51;98023.56;;;12.61;100.00
36502;BME280;25393;46.108;3.390;2022-12-24T02:41:27;98018.09;;;12.63;100.00
36502;BME280;25393;46.108;3.390;2022-12-24T02:44:16;98023.75;;;12.60;100.00
36502;BME280;25393;46.108;3.390;2022-12-24T02:46:45;98003.56;;;12.50;100.00
36502;BME280;25393;46.108;3.390;2022-12-24T02:49:13;98026.88;;;12.63;100.00
36502;BME280;25393;46.108;3.390;2022-12-24T02:51:39;98027.91;;;12.62;100.00
36502;BME280;25393;46.108;3.390;2022-12-24T02:54:06;98017.41;;;12.46;100.00
36502;BME280;25393;46.108;3.390;2022-12-24T02:56:59;98025.47;;;12.52;100.00
36502;BME280;25393;46.108;3.390;2022-12-24T02:59:45;98031.91;;;12.43;100.00
36502;BME280;25393;46.108;3.390;2022-12-24T03:05:20;98031.63;;;12.38;100.00
36502;BME280;25393;46.108;3.390;2022-12-24T03:08:30;98012.66;;;12.41;100.00
36502;BME280;25393;46.108;3.390;2022-12-24T03:11:00;98008.13;;;12.42;100.00
36502;BME280;25393;46.108;3.390;2022-12-24T03:13:28;98014.59;;;12.47;100.00
36502;BME280;25393;46.108;3.390;2022-12-24T03:15:55;98025.94;;;12.41;99.97
36502;BME280;25393;46.108;3.390;2022-12-24T03:18:24;98026.31;;;12.38;100.00
36502;BME280;25393;46.108;3.390;2022-12-24T03:21:27;98014.28;;;12.42;98.76
36502;BME280;25393;46.108;3.390;2022-12-24T03:23:53;98014.47;;;12.41;98.23
36502;BME280;25393;46.108;3.390;2022-12-24T03:26:20;98015.41;;;12.48;97.76
36502;BME280;25393;46.108;3.390;2022-12-24T03:28:47;98014.38;;;12.49;97.53
36502;BME280;25393;46.108;3.390;2022-12-24T03:31:15;98026.97;;;12.55;97.61
36502;BME280;25393;46.108;3.390;2022-12-24T03:33:42;98012.56;;;12.49;97.10
36502;BME280;25393;46.108;3.390;2022-12-24T03:36:08;98003.84;;;12.41;97.19
36502;BME280;25393;46.108;3.390;2022-12-24T03:38:35;98030.81;;;12.67;97.27
36502;BME280;25393;46.108;3.390;2022-12-24T03:41:04;98029.91;;;12.75;97.99
36502;BME280;25393;46.108;3.390;2022-12-24T03:43:32;98011.75;;;12.78;98.80
36502;BME280;25393;46.108;3.390;2022-12-24T03:46:04;98009.56;;;12.82;99.27
36502;BME280;25393;46.108;3.390;2022-12-24T03:48:33;98015.88;;;12.81;99.39
36502;BME280;25393;46.108;3.390;2022-12-24T03:51:01;97997.16;;;12.74;99.65
36502;BME280;25393;46.108;3.390;2022-12-24T03:53:27;97976.56;;;12.62;99.82
36502;BME280;25393;46.108;3.390;2022-12-24T03:55:54;98013.31;;;12.73;100.00
36502;BME280;25393;46.108;3.390;2022-12-24T03:58:20;98014.97;;;12.74;100.00
36502;BME280;25393;46.108;3.390;2022-12-24T04:00:47;98009.53;;;12.67;100.00
36502;BME280;25393;46.108;3.390;2022-12-24T04:03:13;97983.88;;;12.60;100.00
36502;BME280;25393;46.108;3.390;2022-12-24T04:05:40;98000.94;;;12.65;100.00
36502;BME280;25393;46.108;3.390;2022-12-24T04:08:07;98004.13;;;12.61;100.00
36502;BME280;25393;46.108;3.390;2022-12-24T04:10:33;97973.72;;;12.48;100.00
36502;BME280;25393;46.108;3.390;2022-12-24T04:13:00;98001.84;;;12.72;100.00
36502;BME280;25393;46.108;3.390;2022-12-24T04:15:26;98018.44;;;12.74;100.00
36502;BME280;25393;46.108;3.390;2022-12-24T04:17:53;98008.00;;;12.58;100.00
36502;BME280;25393;46.108;3.390;2022-12-24T04:20:19;98011.66;;;12.57;100.00
36502;BME280;25393;46.108;3.390;2022-12-24T04:22:46;98021.00;;;12.53;100.00
36502;BME280;25393;46.108;3.390;2022-12-24T04:25:12;98044.84;;;12.61;100.00
36502;BME280;25393;46.108;3.390;2022-12-24T04:27:42;98039.81;;;12.66;100.00
36502;BME280;25393;46.108;3.390;2022-12-24T04:30:12;98035.13;;;12.53;100.00
36502;BME280;25393;46.108;3.390;2022-12-24T04:32:38;98029.88;;;12.31;100.00
36502;BME280;25393;46.108;3.390;2022-12-24T04:35:05;98033.06;;;12.26;100.00
36502;BME280;25393;46.108;3.390;2022-12-24T04:37:33;98031.38;;;12.25;100.00
36502;BME280;25393;46.108;3.390;2022-12-24T04:39:59;98034.25;;;12.24;100.00
36502;BME280;25393;46.108;3.390;2022-12-24T04:42:26;98044.97;;;12.30;100.00
36502;BME280;25393;46.108;3.390;2022-12-24T04:44:52;98054.31;;;12.26;100.00
36502;BME280;25393;46.108;3.390;2022-12-24T04:47:19;98052.66;;;12.25;100.00
36502;BME280;25393;46.108;3.390;2022-12-24T04:49:45;98057.78;;;12.27;100.00
36502;BME280;25393;46.108;3.390;2022-12-24T04:52:12;98064.09;;;12.26;100.00
36502;BME280;25393;46.108;3.390;2022-12-24T04:54:38;98055.13;;;12.27;100.00
36502;BME280;25393;46.108;3.390;2022-12-24T04:57:05;98050.09;;;12.32;100.00
36502;BME280;25393;46.108;3.390;2022-12-24T04:59:31;98062.03;;;12.36;100.00
36502;BME280;25393;46.108;3.390;2022-12-24T05:01:58;98067.06;;;12.31;100.00
36502;BME280;25393;46.108;3.390;2022-12-24T05:04:25;98074.84;;;12.32;100.00
36502;BME280;25393;46.108;3.390;2022-12-24T05:06:51;98079.47;;;12.38;100.00
36502;BME280;25393;46.108;3.390;2022-12-24T05:09:18;98073.22;;;12.46;100.00
36502;BME280;25393;46.108;3.390;2022-12-24T05:11:44;98075.50;;;12.34;100.00
36502;BME280;25393;46.108;3.390;2022-12-24T05:14:11;98052.06;;;12.15;100.00
36502;BME280;25393;46.108;3.390;2022-12-24T05:16:40;98067.13;;;12.23;100.00
36502;BME280;25393;46.108;3.390;2022-12-24T05:19:09;98088.81;;;12.34;100.00
36502;BME280;25393;46.108;3.390;2022-12-24T05:21:35;98107.34;;;12.20;100.00
36502;BME280;25393;46.108;3.390;2022-12-24T05:24:02;98104.25;;;12.08;100.00
36502;BME280;25393;46.108;3.390;2022-12-24T05:26:52;98097.19;;;12.23;100.00
36502;BME280;25393;46.108;3.390;2022-12-24T05:29:20;98091.41;;;12.20;100.00
36502;BME280;25393;46.108;3.390;2022-12-24T05:31:46;98093.13;;;12.13;100.00
36502;BME280;25393;46.108;3.390;2022-12-24T05:34:14;98091.50;;;12.03;100.00
36502;BME280;25393;46.108;3.390;2022-12-24T05:36:42;98077.88;;;12.07;100.00
36502;BME280;25393;46.108;3.390;2022-12-24T05:39:16;98067.25;;;12.07;100.00
36502;BME280;25393;46.108;3.390;2022-12-24T05:41:46;98060.22;;;11.91;100.00
36502;BME280;25393;46.108;3.390;2022-12-24T05:44:14;98070.53;;;11.86;100.00
36502;BME280;25393;46.108;3.390;2022-12-24T05:46:42;98072.91;;;11.81;100.00
36502;BME280;25393;46.108;3.390;2022-12-24T05:49:11;98067.75;;;11.79;100.00
36502;BME280;25393;46.108;3.390;2022-12-24T05:51:38;98051.34;;;11.76;100.00
36502;BME280;25393;46.108;3.390;2022-12-24T05:54:06;98078.66;;;11.92;100.00
36502;BME280;25393;46.108;3.390;2022-12-24T05:56:32;98070.53;;;11.86;100.00
36502;BME280;25393;46.108;3.390;2022-12-24T05:58:59;98069.38;;;11.88;100.00
36502;BME280;25393;46.108;3.390;2022-12-24T06:01:26;98073.50;;;11.91;100.00
36502;BME280;25393;46.108;3.390;2022-12-24T06:03:53;98073.97;;;11.94;100.00
36502;BME280;25393;46.108;3.390;2022-12-24T06:06:22;98073.38;;;11.84;100.00
36502;BME280;25393;46.108;3.390;2022-12-24T06:08:51;98075.03;;;11.85;100.00
36502;BME280;25393;46.108;3.390;2022-12-24T06:11:21;98071.44;;;11.70;100.00
36502;BME280;25393;46.108;3.390;2022-12-24T06:13:47;98078.25;;;11.65;100.00
36502;BME280;25393;46.108;3.390;2022-12-24T06:16:16;98057.94;;;11.57;100.00
36502;BME280;25393;46.108;3.390;2022-12-24T06:18:44;98073.78;;;11.65;100.00
36502;BME280;25393;46.108;3.390;2022-12-24T06:21:13;98074.97;;;11.63;100.00
36502;BME280;25393;46.108;3.390;2022-12-24T06:23:43;98056.53;;;11.61;100.00
36502;BME280;25393;46.108;3.390;2022-12-24T06:26:18;98065.66;;;11.67;100.00
36502;BME280;25393;46.108;3.390;2022-12-24T06:28:46;98063.47;;;11.70;100.00
36502;BME280;25393;46.108;3.390;2022-12-24T06:31:15;98054.59;;;11.86;100.00
36502;BME280;25393;46.108;3.390;2022-12-24T06:33:42;98061.44;;;11.80;100.00
36502;BME280;25393;46.108;3.390;2022-12-24T06:36:13;98054.00;;;11.76;100.00
36502;BME280;25393;46.108;3.390;2022-12-24T06:38:44;98054.00;;;11.76;100.00
36502;BME280;25393;46.108;3.390;2022-12-24T06:41:10;98053.19;;;11.75;100.00
36502;BME280;25393;46.108;3.390;2022-12-24T06:43:37;98037.94;;;11.69;100.00
36502;BME280;25393;46.108;3.390;2022-12-24T06:46:04;98030.31;;;11.66;100.00
36502;BME280;25393;46.108;3.390;2022-12-24T06:48:31;98019.06;;;11.64;100.00
36502;BME280;25393;46.108;3.390;2022-12-24T06:50:57;98041.41;;;11.70;100.00
36502;BME280;25393;46.108;3.390;2022-12-24T06:53:26;98044.69;;;11.49;100.00
36502;BME280;25393;46.108;3.390;2022-12-24T06:56:00;98054.34;;;11.42;100.00
36502;BME280;25393;46.108;3.390;2022-12-24T06:58:26;98065.94;;;11.41;100.00
36502;BME280;25393;46.108;3.390;2022-12-24T07:00:53;98056.19;;;11.33;100.00
36502;BME280;25393;46.108;3.390;2022-12-24T07:03:19;98053.88;;;11.38;100.00
36502;BME280;25393;46.108;3.390;2022-12-24T07:05:46;98034.34;;;11.23;100.00
36502;BME280;25393;46.108;3.390;2022-12-24T07:08:19;98048.59;;;11.30;100.00
36502;BME280;25393;46.108;3.390;2022-12-24T07:10:50;98046.91;;;11.37;100.00
36502;BME280;25393;46.108;3.390;2022-12-24T07:13:20;98031.16;;;11.36;100.00
36502;BME280;25393;46.108;3.390;2022-12-24T07:16:00;98046.47;;;11.57;100.00
36502;BME280;25393;46.108;3.390;2022-12-24T07:18:27;98063.50;;;11.39;100.00
36502;BME280;25393;46.108;3.390;2022-12-24T07:20:54;98060.75;;;11.17;100.00
36502;BME280;25393;46.108;3.390;2022-12-24T07:23:21;98077.38;;;11.11;100.00
36502;BME280;25393;46.108;3.390;2022-12-24T07:25:48;98059.78;;;11.10;100.00
36502;BME280;25393;46.108;3.390;2022-12-24T07:28:14;98036.41;;;11.05;100.00
36502;BME280;25393;46.108;3.390;2022-12-24T07:30:42;98052.09;;;11.23;100.00
36502;BME280;25393;46.108;3.390;2022-12-24T07:33:09;98036.16;;;11.31;100.00
36502;BME280;25393;46.108;3.390;2022-12-24T07:35:35;98044.25;;;11.37;100.00
36502;BME280;25393;46.108;3.390;2022-12-24T07:38:02;98047.44;;;11.33;100.00
36502;BME280;25393;46.108;3.390;2022-12-24T07:40:28;98043.72;;;11.42;100.00
36502;BME280;25393;46.108;3.390;2022-12-24T07:42:55;98054.72;;;11.31;100.00
36502;BME280;25393;46.108;3.390;2022-12-24T07:45:22;98058.22;;;11.31;100.00
36502;BME280;25393;46.108;3.390;2022-12-24T07:47:48;98053.72;;;11.32;100.00
36502;BME280;25393;46.108;3.390;2022-12-24T07:50:15;98038.59;;;11.40;100.00
36502;BME280;25393;46.108;3.390;2022-12-24T07:52:43;98022.66;;;11.40;100.00
36502;BME280;25393;46.108;3.390;2022-12-24T07:55:10;98042.03;;;11.49;100.00
36502;BME280;25393;46.108;3.390;2022-12-24T07:57:36;98057.94;;;11.57;100.00
36502;BME280;25393;46.108;3.390;2022-12-24T08:00:03;98044.91;;;11.39;100.00
36502;BME280;25393;46.108;3.390;2022-12-24T08:02:30;98037.34;;;11.28;100.00
36502;BME280;25393;46.108;3.390;2022-12-24T08:04:57;98048.25;;;11.33;100.00
36502;BME280;25393;46.108;3.390;2022-12-24T08:07:23;98063.16;;;11.34;100.00
36502;BME280;25393;46.108;3.390;2022-12-24T08:09:50;98060.88;;;11.31;100.00
36502;BME280;25393;46.108;3.390;2022-12-24T08:12:16;98032.06;;;11.20;100.00
36502;BME280;25393;46.108;3.390;2022-12-24T08:14:43;98047.47;;;11.25;100.00
36502;BME280;25393;46.108;3.390;2022-12-24T08:17:10;98065.59;;;11.44;100.00
36502;BME280;25393;46.108;3.390;2022-12-24T08:19:36;98073.56;;;11.44;100.00
36502;BME280;25393;46.108;3.390;2022-12-24T08:22:03;98074.03;;;11.47;100.00
36502;BME280;25393;46.108;3.390;2022-12-24T08:24:29;98070.72;;;11.53;100.00
36502;BME280;25393;46.108;3.390;2022-12-24T08:26:56;98076.31;;;11.59;100.00
36502;BME280;25393;46.108;3.390;2022-12-24T08:29:23;98053.59;;;11.56;100.00
36502;BME280;25393;46.108;3.390;2022-12-24T08:31:49;98067.13;;;11.69;100.00
36502;BME280;25393;46.108;3.390;2022-12-24T08:34:19;98038.31;;;11.58;100.00
36502;BME280;25393;46.108;3.390;2022-12-24T08:36:48;98076.75;;;11.78;100.00
36502;BME280;25393;46.108;3.390;2022-12-24T08:39:25;98072.91;;;11.81;100.00
36502;BME280;25393;46.108;3.390;2022-12-24T08:41:52;98055.31;;;11.80;100.00
36502;BME280;25393;46.108;3.390;2022-12-24T08:44:19;98050.59;;;11.90;100.00
36502;BME280;25393;46.108;3.390;2022-12-24T08:46:48;98036.91;;;12.01;100.00
36502;BME280;25393;46.108;3.390;2022-12-24T08:49:14;98025.66;;;11.99;100.00
36502;BME280;25393;46.108;3.390;2022-12-24T08:51:43;98043.38;;;12.21;100.00
36502;BME280;25393;46.108;3.390;2022-12-24T08:54:10;98044.97;;;12.30;100.00
36502;BME280;25393;46.108;3.390;2022-12-24T08:56:37;98032.97;;;12.34;100.00
36502;BME280;25393;46.108;3.390;2022-12-24T08:59:03;98045.38;;;12.57;100.00
36502;BME280;25393;46.108;3.390;2022-12-24T09:01:30;98025.16;;;12.56;100.00
36502;BME280;25393;46.108;3.390;2022-12-24T09:03:57;98034.59;;;12.73;100.00
36502;BME280;25393;46.108;3.390;2022-12-24T09:06:23;98010.66;;;12.73;100.00
36502;BME280;25393;46.108;3.390;2022-12-24T09:08:50;98026.63;;;12.87;100.00
36502;BME280;25393;46.108;3.390;2022-12-24T09:11:18;98031.38;;;12.92;100.00
36502;BME280;25393;46.108;3.390;2022-12-24T09:13:48;98037.53;;;12.92;100.00
36502;BME280;25393;46.108;3.390;2022-12-24T09:16:19;98041.56;;;12.88;100.00
36502;BME280;25393;46.108;3.390;2022-12-24T09:18:49;98042.03;;;12.92;100.00
36502;BME280;25393;46.108;3.390;2022-12-24T09:21:19;98055.53;;;13.05;100.00
36502;BME280;25393;46.108;3.390;2022-12-24T09:23:48;98048.09;;;13.00;100.00
36502;BME280;25393;46.108;3.390;2022-12-24T09:26:24;98050.31;;;13.12;100.00
36502;BME280;25393;46.108;3.390;2022-12-24T09:28:52;98048.00;;;13.09;100.00
36502;BME280;25393;46.108;3.390;2022-12-24T09:31:19;98063.19;;;13.23;100.00
36502;BME280;25393;46.108;3.390;2022-12-24T09:33:50;98057.03;;;13.22;100.00
36502;BME280;25393;46.108;3.390;2022-12-24T09:36:18;98041.69;;;13.24;100.00
36502;BME280;25393;46.108;3.390;2022-12-24T09:38:47;98010.03;;;13.15;100.00
36502;BME280;25393;46.108;3.390;2022-12-24T09:41:43;98022.88;;;13.26;100.00
36502;BME280;25393;46.108;3.390;2022-12-24T09:46:51;98056.06;;;13.80;100.00
36502;BME280;25393;46.108;3.390;2022-12-24T09:49:26;98051.47;;;14.10;100.00
36502;BME280;25393;46.108;3.390;2022-12-24T09:51:59;98052.38;;;14.38;100.00
36502;BME280;25393;46.108;3.390;2022-12-24T09:54:31;98057.31;;;14.69;100.00
36502;BME280;25393;46.108;3.390;2022-12-24T09:57:05;98058.34;;;15.02;100.00
36502;BME280;25393;46.108;3.390;2022-12-24T09:59:43;98049.94;;;15.40;97.76
36502;BME280;25393;46.108;3.390;2022-12-24T10:02:13;98058.88;;;15.60;95.60
36502;BME280;25393;46.108;3.390;2022-12-24T10:04:45;98057.03;;;15.61;94.85
36502;BME280;25393;46.108;3.390;2022-12-24T10:07:53;98051.78;;;15.39;93.08
36502;BME280;25393;46.108;3.390;2022-12-24T10:19:38;98070.25;;;14.44;100.00
36502;BME280;25393;46.108;3.390;2022-12-24T10:25:26;98055.00;;;14.17;100.00
36502;BME280;25393;46.108;3.390;2022-12-24T10:27:57;98072.56;;;14.12;100.00
36502;BME280;25393;46.108;3.390;2022-12-24T10:30:25;98064.47;;;14.20;100.00
36502;BME280;25393;46.108;3.390;2022-12-24T10:32:52;98058.06;;;14.14;100.00
36502;BME280;25393;46.108;3.390;2022-12-24T10:35:28;98032.03;;;13.95;100.00
36502;BME280;25393;46.108;3.390;2022-12-24T10:37:57;98049.03;;;14.15;100.00
36502;BME280;25393;46.108;3.390;2022-12-24T10:40:37;98046.75;;;14.33;100.00
36502;BME280;25393;46.108;3.390;2022-12-24T10:43:25;98029.50;;;14.08;100.00
36502;BME280;25393;46.108;3.390;2022-12-24T10:46:00;98055.56;;;14.13;100.00
36502;BME280;25393;46.108;3.390;2022-12-24T10:48:54;98051.19;;;14.26;100.00
36502;BME280;25393;46.108;3.390;2022-12-24T10:51:33;98042.56;;;14.24;100.00
36502;BME280;25393;46.108;3.390;2022-12-24T10:56:42;98056.34;;;14.28;100.00
36502;BME280;25393;46.108;3.390;2022-12-24T11:02:00;98023.03;;;13.96;100.00
36502;BME280;25393;46.108;3.390;2022-12-24T11:04:29;98048.75;;;14.04;100.00
36502;BME280;25393;46.108;3.390;2022-12-24T11:07:02;98031.09;;;14.02;100.00
36502;BME280;25393;46.108;3.390;2022-12-24T11:11:59;98035.41;;;13.82;100.00
36502;BME280;25393;46.108;3.390;2022-12-24T11:14:39;97985.28;;;13.50;100.00
36502;BME280;25393;46.108;3.390;2022-12-24T11:17:06;98022.31;;;13.66;100.00
36502;BME280;25393;46.108;3.390;2022-12-24T11:19:49;98039.47;;;13.78;100.00
36502;BME280;25393;46.108;3.390;2022-12-24T11:22:22;98033.69;;;13.75;100.00
36502;BME280;25393;46.108;3.390;2022-12-24T11:25:22;98021.31;;;13.67;100.00
36502;BME280;25393;46.108;3.390;2022-12-24T11:27:50;98019.84;;;13.65;100.00
36502;BME280;25393;46.108;3.390;2022-12-24T11:30:24;98022.69;;;13.63;100.00
36502;BME280;25393;46.108;3.390;2022-12-24T11:35:29;98015.47;;;13.57;100.00
36502;BME280;25393;46.108;3.390;2022-12-24T11:40:34;98025.44;;;13.55;100.00
36502;BME280;25393;46.108;3.390;2022-12-24T11:43:03;98023.72;;;13.47;100.00
36502;BME280;25393;46.108;3.390;2022-12-24T11:45:50;97993.53;;;13.19;100.00
36502;BME280;25393;46.108;3.390;2022-12-24T11:48:45;98028.44;;;13.31;100.00
36502;BME280;25393;46.108;3.390;2022-12-24T11:51:24;98027.44;;;13.32;100.00
36502;BME280;25393;46.108;3.390;2022-12-24T11:56:43;98023.13;;;13.31;100.00
36502;BME280;25393;46.108;3.390;2022-12-24T11:59:29;98022.88;;;13.26;100.00
36502;BME280;25393;46.108;3.390;2022-12-24T12:02:02;98021.22;;;13.25;100.00
36502;BME280;25393;46.108;3.390;2022-12-24T12:04:38;98017.72;;;13.24;100.00
36502;BME280;25393;46.108;3.390;2022-12-24T12:07:26;98017.81;;;13.16;100.00
36502;BME280;25393;46.108;3.390;2022-12-24T12:10:02;98007.25;;;13.08;100.00
36502;BME280;25393;46.108;3.390;2022-12-24T12:12:35;97998.81;;;13.05;100.00
36502;BME280;25393;46.108;3.390;2022-12-24T12:15:12;97990.63;;;13.06;100.00
36502;BME280;25393;46.108;3.390;2022-12-24T12:17:58;97996.28;;;13.11;100.00
36502;BME280;25393;46.108;3.390;2022-12-24T12:20:40;97991.56;;;12.98;100.00
36502;BME280;25393;46.108;3.390;2022-12-24T12:25:56;98002.03;;;13.00;100.00
36502;BME280;25393;46.108;3.390;2022-12-24T12:31:05;98000.66;;;13.04;100.00
36502;BME280;25393;46.108;3.390;2022-12-24T12:33:54;97983.78;;;12.97;100.00
36502;BME280;25393;46.108;3.390;2022-12-24T12:36:35;97993.69;;;13.03;100.00
36502;BME280;25393;46.108;3.390;2022-12-24T12:39:08;97978.53;;;13.03;100.00
36502;BME280;25393;46.108;3.390;2022-12-24T12:41:53;97977.00;;;13.09;100.00
36502;BME280;25393;46.108;3.390;2022-12-24T12:50:38;97976.34;;;13.22;100.00
36502;BME280;25393;46.108;3.390;2022-12-24T12:53:22;97976.81;;;13.25;100.00
36502;BME280;25393;46.108;3.390;2022-12-24T12:56:25;97971.53;;;13.32;100.00
36502;BME280;25393;46.108;3.390;2022-12-24T12:59:03;97942.44;;;13.30;100.00
36502;BME280;25393;46.108;3.390;2022-12-24T13:18:33;97959.75;;;13.41;100.00
36502;BME280;25393;46.108;3.390;2022-12-24T13:21:03;97950.81;;;13.27;100.00
36502;BME280;25393;46.108;3.390;2022-12-24T13:23:30;97954.75;;;13.31;100.00
36502;BME280;25393;46.108;3.390;2022-12-24T13:25:57;97923.28;;;13.20;100.00
36502;BME280;25393;46.108;3.390;2022-12-24T13:36:13;97942.41;;;13.45;100.00
36502;BME280;25393;46.108;3.390;2022-12-24T13:38:47;97930.97;;;13.51;100.00
36502;BME280;25393;46.108;3.390;2022-12-24T13:46:45;97937.91;;;13.67;100.00
36502;BME280;25393;46.108;3.390;2022-12-24T13:49:34;97924.66;;;13.52;100.00
36502;BME280;25393;46.108;3.390;2022-12-24T13:54:32;97905.47;;;13.57;100.00
36502;BME280;25393;46.108;3.390;2022-12-24T13:57:00;97932.63;;;13.73;100.00
36502;BME280;25393;46.108;3.390;2022-12-24T13:59:35;97923.81;;;13.73;100.00
36502;BME280;25393;46.108;3.390;2022-12-24T14:02:04;97906.34;;;13.64;100.00
36502;BME280;25393;46.108;3.390;2022-12-24T14:04:42;97924.13;;;13.84;100.00
36502;BME280;25393;46.108;3.390;2022-12-24T14:07:10;97890.06;;;13.80;100.00
36502;BME280;25393;46.108;3.390;2022-12-24T14:09:37;97902.09;;;13.97;100.00
36502;BME280;25393;46.108;3.390;2022-12-24T14:14:32;97903.38;;;14.01;100.00
36502;BME280;25393;46.108;3.390;2022-12-24T14:17:02;97921.19;;;14.00;100.00
36502;BME280;25393;46.108;3.390;2022-12-24T14:24:55;97920.31;;;13.93;100.00
36502;BME280;25393;46.108;3.390;2022-12-24T14:27:46;97920.25;;;13.87;100.00
36502;BME280;25393;46.108;3.390;2022-12-24T14:30:27;97923.88;;;13.79;100.00
36502;BME280;25393;46.108;3.390;2022-12-24T14:32:55;97913.75;;;13.68;100.00
36502;BME280;25393;46.108;3.390;2022-12-24T14:35:23;97942.09;;;13.76;100.00
36502;BME280;25393;46.108;3.390;2022-12-24T14:38:02;97935.63;;;13.64;100.00
36502;BME280;25393;46.108;3.390;2022-12-24T14:40:49;97931.44;;;13.55;100.00
36502;BME280;25393;46.108;3.390;2022-12-24T14:48:56;97924.97;;;13.42;100.00
36502;BME280;25393;46.108;3.390;2022-12-24T14:51:35;97922.94;;;13.44;100.00
36502;BME280;25393;46.108;3.390;2022-12-24T14:56:43;97911.50;;;13.44;100.00